1898 Cyclonic Storm NOT_NAMED (1898164N18086)


IBTrACS version v04r00. Visit IBTrACS website for data access.
Please direct all questions to the IBTrACS Q and A forum

Storm track - Intensity - Wind Radii - Intensity Data - Source Data - All data

Summary Information

Storm ID 1898164N18086
Start Jun 13 00Z
Landfall Jun 15 15Z, Jun 16 00Z
Max Intensity 45 kt (Jun 13 12Z)
End Jun 20 03Z
ATCF IDs
Track status Best track data.

Storm track plot

Map of storm track

Intensity plots

Map of storm track

Radial wind information

No radial wind information for this storm


Position and Intensity Table

BASIN ISO_TIME_________ NATURE LAT LON DS824 WIND
degrees north degrees east kts
NI 1898-06-13 00:00:00 TS 18.20 86.00 34
NI 03:00:00 TS 18.20 86.03 36
NI 06:00:00 TS 18.20 86.08 39
NI 09:00:00 TS 18.23 86.13 42
NI 12:00:00 TS 18.28 86.18 45
NI 15:00:00 TS 18.35 86.23 45
NI 18:00:00 TS 18.44 86.27 45
NI 21:00:00 TS 18.51 86.29 45
NI 1898-06-14 00:00:00 TS 18.57 86.29 45
NI 03:00:00 TS 18.60 86.30 45
NI 06:00:00 TS 18.61 86.30 45
NI 09:00:00 TS 18.61 86.30 45
NI 12:00:00 TS 18.61 86.30 45
NI 15:00:00 TS 18.60 86.30 45
NI 18:00:00 TS 18.56 86.29 45
NI 21:00:00 TS 18.50 86.27 45
NI 1898-06-15 00:00:00 TS 18.54 86.28 45
NI 03:00:00 TS 18.79 86.37 45
NI 06:00:00 TS 19.22 86.49 45
NI 09:00:00 TS 19.68 86.58 45
NI 12:00:00 TS 20.15 86.71 45
NI 15:00:00 TS 20.58 86.92 41
NI 18:00:00 TS 20.97 87.17 37
NI 21:00:00 TS 21.37 87.41 33
NI 1898-06-16 00:00:00 TS 21.68 87.61 30
NI 03:00:00 TS 21.83 87.72 30
NI 06:00:00 TS 21.85 87.73 30
NI 09:00:00 TS 21.85 87.73 30
NI 12:00:00 TS 21.83 87.72 30
NI 15:00:00 TS 21.80 87.70 30
NI 18:00:00 TS 21.78 87.68 30
NI 21:00:00 TS 21.74 87.66 30
NI 1898-06-17 00:00:00 TS 21.76 87.67 30
NI 03:00:00 TS 21.90 87.76 30
NI 06:00:00 TS 22.15 87.94 30
NI 09:00:00 TS 22.46 88.17 30
NI 12:00:00 TS 22.82 88.41 30
NI 15:00:00 TS 23.17 88.57 30
NI 18:00:00 TS 23.55 88.64 30
NI 21:00:00 TS 23.98 88.64 30
NI 1898-06-18 00:00:00 TS 24.35 88.61 30
NI 03:00:00 TS 24.58 88.60 30
NI 06:00:00 TS 24.68 88.60 30
NI 09:00:00 TS 24.75 88.60 30
NI 12:00:00 TS 24.79 88.60 30
NI 15:00:00 TS 24.82 88.60 30
NI 18:00:00 TS 24.87 88.60 30
NI 21:00:00 TS 24.92 88.64 30
NI 1898-06-19 00:00:00 TS 24.97 88.68 30
NI 03:00:00 TS 25.05 88.72 30
NI 06:00:00 TS 25.14 88.78 30
NI 09:00:00 TS 25.25 88.86 30
NI 12:00:00 TS 25.35 88.95 30
NI 15:00:00 TS 25.45 89.05 30
NI 18:00:00 TS 25.54 89.15 30
NI 21:00:00 TS 25.60 89.28 30
NI 1898-06-20 00:00:00 TS 25.66 89.41 30
NI 03:00:00 NR 25.70 89.50

Source Information

Agency Information
USA
TOKYO
CMA
HKO
NEWDELHI
REUNION
BOM
NADI
WELLINGTON
DS824 n_ind.dat:240:NOT NAMED
TD9636 cons_worldwide_trop_cyclone_18710101-19891231-004:Line=2386
TD9635
NEUMANN
MLC

All available IBTrACS Data

SEASON BASIN SUBBASIN ISO_TIME_________ NATURE LAT LON DIST2LAND LANDFALL IFLAG USA SSHS DS824 LAT DS824 LON DS824 STAGE DS824 WIND TD9636 LAT TD9636 LON TD9636 STAGE STORM SPEED STORM DIR
Year degrees north degrees east km km 1 degrees north degrees east kts degrees north degrees east kts degrees
1898 NI BB 1898-06-13 00:00:00 TS 18.20 86.00 162 162 _________O____ -1 18.20 86.00 TC 34 1 97
1898 NI BB 03:00:00 TS 18.20 86.03 162 162 _________PO___ -1 18.19 86.05 TC 36 18.20 86.00 2 1 88
1898 NI BB 06:00:00 TS 18.20 86.08 171 171 _________OP___ -1 18.20 86.10 TC 39 18.21 86.05 2 1 71
1898 NI BB 09:00:00 TS 18.23 86.13 171 168 _________PP___ -1 18.23 86.15 TC 42 18.22 86.11 2 1 50
1898 NI BB 12:00:00 TS 18.28 86.18 168 168 _________OP___ -1 18.30 86.20 TC 45 18.25 86.16 2 2 36
1898 NI BB 15:00:00 TS 18.35 86.23 158 158 _________PO___ -1 18.40 86.26 TC 45 18.30 86.20 3 2 30
1898 NI BB 18:00:00 TS 18.44 86.27 164 154 _________OP___ -1 18.50 86.30 TC 45 18.37 86.24 3 2 21
1898 NI BB 21:00:00 TS 18.51 86.29 154 144 _________PP___ -1 18.56 86.31 TC 45 18.46 86.26 3 1 0
1898 NI BB 1898-06-14 00:00:00 TS 18.57 86.29 144 144 _________OP___ -1 18.60 86.30 TC 45 18.54 86.29 3 1 0
1898 NI BB 03:00:00 TS 18.60 86.30 144 144 _________PO___ -1 18.61 86.30 TC 45 18.60 86.30 3 0 0
1898 NI BB 06:00:00 TS 18.61 86.30 144 144 _________OP___ -1 18.60 86.30 TC 45 18.62 86.31 3 0 0
1898 NI BB 09:00:00 TS 18.61 86.30 144 144 _________PP___ -1 18.60 86.30 TC 45 18.62 86.31 3 0 0
1898 NI BB 12:00:00 TS 18.61 86.30 144 144 _________OP___ -1 18.60 86.30 TC 45 18.61 86.30 3 0 0
1898 NI BB 15:00:00 TS 18.60 86.30 144 144 _________PO___ -1 18.60 86.30 TC 45 18.60 86.30 3 0 0
1898 NI BB 18:00:00 TS 18.56 86.29 144 144 _________OP___ -1 18.60 86.30 TC 45 18.53 86.28 3 1 205
1898 NI BB 21:00:00 TS 18.50 86.27 154 154 _________PP___ -1 18.53 86.28 TC 45 18.46 86.26 3 0 225
1898 NI BB 1898-06-15 00:00:00 TS 18.54 86.28 154 127 _________OP___ -1 18.60 86.30 TC 45 18.47 86.26 3 3 17
1898 NI BB 03:00:00 TS 18.79 86.37 127 88 _________PO___ -1 18.98 86.43 TC 45 18.60 86.30 3 7 16
1898 NI BB 06:00:00 TS 19.22 86.49 88 39 _________OP___ -1 19.50 86.60 TC 45 18.94 86.37 3 9 13
1898 NI BB 09:00:00 TS 19.68 86.58 39 22 _________PP___ -1 19.96 86.69 TC 45 19.39 86.48 3 10 13
1898 NI BB 12:00:00 TS 20.15 86.71 11 0 _________OP___ -1 20.40 86.80 TC 45 19.91 86.63 3 10 19
1898 NI BB 15:00:00 TS 20.58 86.92 0 0 _________PO___ -1 20.77 87.03 TC 41 20.40 86.80 3 9 27
1898 NI BB 18:00:00 TS 20.97 87.17 30 30 _________OP___ -1 21.10 87.30 TC 37 20.84 87.03 3 9 30
1898 NI BB 21:00:00 TS 21.37 87.41 22 0 _________PP___ -1 21.50 87.54 TC 33 21.24 87.29 3 8 30
1898 NI BB 1898-06-16 00:00:00 TS 21.68 87.61 0 0 _________OP___ -1 21.80 87.70 TC 30 21.57 87.52 3 5 32
1898 NI BB 03:00:00 TS 21.83 87.72 0 0 _________PO___ -1 21.85 87.73 TC 30 21.80 87.70 1 2 34
1898 NI BB 06:00:00 TS 21.85 87.73 0 0 _________OP___ -1 21.80 87.70 TC 30 21.90 87.77 1 0 0
1898 NI BB 09:00:00 TS 21.85 87.73 0 0 _________PP___ -1 21.80 87.70 TC 30 21.90 87.77 1 0 0
1898 NI BB 12:00:00 TS 21.83 87.72 0 0 _________OP___ -1 21.80 87.70 TC 30 21.86 87.74 1 1 220
1898 NI BB 15:00:00 TS 21.80 87.70 0 0 _________PO___ -1 21.80 87.70 TC 30 21.80 87.70 1 1 220
1898 NI BB 18:00:00 TS 21.78 87.68 0 0 _________OP___ -1 21.80 87.70 TC 30 21.75 87.67 1 1 216
1898 NI BB 21:00:00 TS 21.74 87.66 0 0 _________PP___ -1 21.76 87.68 TC 30 21.71 87.64 1 0 0
1898 NI BB 1898-06-17 00:00:00 TS 21.76 87.67 0 0 _________OP___ -1 21.80 87.70 TC 30 21.71 87.64 1 2 29
1898 NI BB 03:00:00 TS 21.90 87.76 0 0 _________PO___ -1 22.00 87.81 TC 30 21.80 87.70 1 5 32
1898 NI BB 06:00:00 TS 22.15 87.94 0 0 _________OP___ -1 22.30 88.00 TC 30 22.00 87.87 1 7 35
1898 NI BB 09:00:00 TS 22.46 88.17 0 0 _________PP___ -1 22.64 88.26 TC 30 22.29 88.09 1 8 33
1898 NI BB 12:00:00 TS 22.82 88.41 0 0 _________OP___ -1 23.00 88.50 TC 30 22.63 88.32 1 8 27
1898 NI BB 15:00:00 TS 23.17 88.57 0 0 _________PO___ -1 23.34 88.65 TC 30 23.00 88.50 1 8 16
1898 NI BB 18:00:00 TS 23.55 88.64 0 0 _________OP___ -1 23.70 88.70 TC 30 23.40 88.58 1 8 4
1898 NI BB 21:00:00 TS 23.98 88.64 0 0 _________PP___ -1 24.14 88.67 TC 30 23.82 88.61 1 8 358
1898 NI BB 1898-06-18 00:00:00 TS 24.35 88.61 0 0 _________OP___ -1 24.50 88.60 TC 30 24.20 88.61 1 6 356
1898 NI BB 03:00:00 TS 24.58 88.60 0 0 _________PO___ -1 24.65 88.59 TC 30 24.50 88.60 1 3 358
1898 NI BB 06:00:00 TS 24.68 88.60 0 0 _________OP___ -1 24.70 88.60 TC 30 24.67 88.60 1 2 5
1898 NI BB 09:00:00 TS 24.75 88.60 0 0 _________PP___ -1 24.76 88.60 TC 30 24.75 88.60 1 1 0
1898 NI BB 12:00:00 TS 24.79 88.60 0 0 _________OP___ -1 24.80 88.60 TC 30 24.78 88.60 1 1 0
1898 NI BB 15:00:00 TS 24.82 88.60 0 0 _________PO___ -1 24.85 88.59 TC 30 24.80 88.60 1 1 18
1898 NI BB 18:00:00 TS 24.87 88.60 0 0 _________OP___ -1 24.90 88.60 TC 30 24.85 88.61 1 1 17
1898 NI BB 21:00:00 TS 24.92 88.64 0 0 _________PP___ -1 24.94 88.64 TC 30 24.89 88.63 1 1 37
1898 NI BB 1898-06-19 00:00:00 TS 24.97 88.68 0 0 _________OP___ -1 25.00 88.70 TC 30 24.94 88.66 1 2 33
1898 NI BB 03:00:00 TS 25.05 88.72 0 0 _________PO___ -1 25.09 88.74 TC 30 25.00 88.70 1 2 28
1898 NI BB 06:00:00 TS 25.14 88.78 0 0 _________OP___ -1 25.20 88.80 TC 30 25.09 88.75 1 2 33
1898 NI BB 09:00:00 TS 25.25 88.86 0 0 _________PP___ -1 25.30 88.89 TC 30 25.19 88.82 1 3 38
1898 NI BB 12:00:00 TS 25.35 88.95 0 0 _________OP___ -1 25.40 89.00 TC 30 25.30 88.90 1 3 40
1898 NI BB 15:00:00 TS 25.45 89.05 0 0 _________PO___ -1 25.51 89.09 TC 30 25.40 89.00 1 3 43
1898 NI BB 18:00:00 TS 25.54 89.15 0 0 _________OP___ -1 25.60 89.20 TC 30 25.49 89.11 1 3 54
1898 NI BB 21:00:00 TS 25.60 89.28 0 0 _________PP___ -1 25.66 89.34 TC 30 25.57 89.23 1 3 63
1898 NI BB 1898-06-20 00:00:00 TS 25.66 89.41 0 0 _________OP___ -1 25.70 89.50 TC 30 25.63 89.37 1 2 64
1898 NI BB 03:00:00 NR 25.70 89.50 0 __________O___ -1 TC 25.70 89.50 1 2 60